Time;durP1;ratioP1;P1;durP2;ratioP2;P2;SDS_P1;SDS_P2;PMS_P1;PMS_P2;Temp;Humidity;BMP_temperature;BMP_pressure;BME280_temperature;BME280_humidity;BME280_pressure;Samples;Min_cycle;Max_cycle;Signal;HPM_P1;HPM_P2
2023/07/27 00:00:12;;;;;;;9.70;4.85;;;16.60;99.90;;;;;;5156929;27;20097;-64
2023/07/27 00:02:38;;;;;;;9.15;4.93;;;16.60;99.90;;;;;;5157164;27;20105;-64
2023/07/27 00:05:04;;;;;;;13.52;4.97;;;16.60;99.90;;;;;;5157025;27;20069;-64
2023/07/27 00:07:30;;;;;;;9.55;4.60;;;16.60;99.90;;;;;;5156907;27;20118;-64
2023/07/27 00:09:56;;;;;;;9.45;5.18;;;16.70;99.90;;;;;;5156842;27;20026;-64
2023/07/27 00:12:22;;;;;;;9.48;4.72;;;16.60;99.90;;;;;;5156830;27;20023;-64
2023/07/27 00:14:49;;;;;;;8.60;4.93;;;16.70;99.90;;;;;;5156734;27;20023;-64
2023/07/27 00:17:16;;;;;;;11.27;4.57;;;16.60;99.90;;;;;;5156925;27;20102;-64
2023/07/27 00:19:42;;;;;;;10.25;4.50;;;16.60;99.90;;;;;;5156690;27;20113;-64
2023/07/27 00:22:08;;;;;;;7.70;4.50;;;16.60;99.90;;;;;;5156375;27;20119;-65
2023/07/27 00:24:34;;;;;;;10.02;4.47;;;16.50;99.90;;;;;;5156467;27;20042;-65
2023/07/27 00:27:00;;;;;;;8.45;4.50;;;16.50;99.90;;;;;;5156677;27;20035;-65
2023/07/27 00:29:26;;;;;;;8.60;5.00;;;16.40;99.90;;;;;;5156507;27;20037;-64
2023/07/27 00:31:52;;;;;;;10.43;4.68;;;16.40;99.90;;;;;;5156501;27;20030;-65
2023/07/27 00:34:19;;;;;;;11.65;4.78;;;16.40;99.90;;;;;;5156359;27;20107;-65
2023/07/27 00:36:45;;;;;;;8.82;4.60;;;16.30;99.90;;;;;;5156430;27;20056;-65
2023/07/27 00:39:11;;;;;;;7.35;4.50;;;16.40;99.90;;;;;;5156467;27;20047;-65
2023/07/27 00:41:41;;;;;;;10.80;4.80;;;16.40;99.90;;;;;;5137750;27;20495;-65
2023/07/27 00:44:07;;;;;;;7.55;4.70;;;16.30;99.90;;;;;;5156321;27;20114;-65
2023/07/27 00:46:36;;;;;;;7.80;4.32;;;16.30;99.90;;;;;;5156459;27;20106;-65
2023/07/27 00:49:05;;;;;;;7.30;4.03;;;16.30;99.90;;;;;;5156249;27;20030;-65
2023/07/27 00:51:40;;;;;;;11.27;4.70;;;16.30;99.90;;;;;;5137815;27;20038;-65
2023/07/27 00:54:08;;;;;;;7.47;3.92;;;16.30;99.90;;;;;;5137601;27;20035;-65
2023/07/27 00:56:37;;;;;;;9.80;4.55;;;16.30;99.90;;;;;;5155995;27;20075;-65
2023/07/27 00:59:04;;;;;;;8.80;4.85;;;16.30;99.90;;;;;;5137638;27;20461;-65
2023/07/27 01:01:32;;;;;;;10.52;4.50;;;16.20;99.90;;;;;;5156292;27;20023;-65
2023/07/27 01:03:59;;;;;;;6.47;4.05;;;16.30;99.90;;;;;;5155817;27;20069;-65
2023/07/27 01:06:25;;;;;;;9.77;4.88;;;16.30;99.90;;;;;;5156183;27;20034;-65
2023/07/27 01:08:52;;;;;;;7.75;4.53;;;16.30;99.90;;;;;;5137402;27;20034;-66
2023/07/27 01:11:39;;;;;;;10.15;4.85;;;16.20;99.90;;;;;;5155858;27;20070;-65
2023/07/27 01:14:18;;;;;;;13.02;4.78;;;16.30;99.90;;;;;;5156172;27;20110;-65
2023/07/27 01:17:03;;;;;;;12.32;5.45;;;16.20;99.90;;;;;;5137622;27;20404;-65
2023/07/27 01:19:48;;;;;;;10.57;4.60;;;16.20;99.90;;;;;;5137422;27;20091;-65
2023/07/27 01:22:26;;;;;;;10.32;5.45;;;16.20;99.90;;;;;;5155865;27;20018;-65
2023/07/27 01:25:17;;;;;;;11.40;6.00;;;16.10;99.90;;;;;;5155620;27;20047;-65
2023/07/27 01:28:10;;;;;;;14.55;6.80;;;16.10;99.90;;;;;;5156005;27;20041;-66
2023/07/27 01:30:50;;;;;;;11.13;6.85;;;16.00;99.90;;;;;;5155910;27;20031;-65
2023/07/27 01:33:21;;;;;;;15.60;7.95;;;16.00;99.90;;;;;;5137130;27;20031;-65
2023/07/27 01:35:55;;;;;;;14.95;7.65;;;16.00;99.90;;;;;;5157691;27;20118;-65
2023/07/27 01:38:22;;;;;;;14.20;7.22;;;16.10;99.90;;;;;;5159829;27;20027;-65
2023/07/27 01:40:50;;;;;;;14.70;7.88;;;16.00;99.90;;;;;;5141129;27;20123;-65
2023/07/27 01:43:17;;;;;;;17.65;7.50;;;16.10;99.90;;;;;;5159822;27;20456;-65
2023/07/27 01:45:44;;;;;;;15.73;8.23;;;16.00;99.90;;;;;;5159265;27;20026;-65
2023/07/27 01:48:12;;;;;;;15.35;7.50;;;16.00;99.90;;;;;;5159698;27;20083;-65
2023/07/27 01:50:39;;;;;;;17.88;8.13;;;16.00;99.90;;;;;;5159772;27;20038;-66
2023/07/27 01:53:05;;;;;;;18.08;7.82;;;15.90;99.90;;;;;;5159324;27;20082;-65
2023/07/27 01:55:33;;;;;;;15.02;8.07;;;15.80;99.90;;;;;;5159305;27;20031;-65
2023/07/27 01:58:02;;;;;;;18.10;7.15;;;15.80;99.90;;;;;;5140953;27;20388;-65
2023/07/27 02:00:28;;;;;;;19.38;7.47;;;15.90;99.90;;;;;;5159005;27;20030;-65
2023/07/27 02:02:55;;;;;;;15.75;7.22;;;15.90;99.90;;;;;;5140791;27;20133;-65
2023/07/27 02:05:23;;;;;;;14.70;7.78;;;15.80;99.90;;;;;;5159229;27;20096;-65
2023/07/27 02:07:48;;;;;;;16.50;7.43;;;15.70;99.90;;;;;;5140452;27;20027;-65
2023/07/27 02:10:17;;;;;;;14.68;7.85;;;15.70;99.90;;;;;;5140701;27;20031;-65
2023/07/27 02:12:49;;;;;;;19.73;7.95;;;15.60;99.90;;;;;;5140504;27;20066;-65
2023/07/27 02:15:21;;;;;;;17.27;7.57;;;15.60;99.90;;;;;;5140376;27;20424;-65
2023/07/27 02:17:53;;;;;;;15.50;8.73;;;15.50;99.90;;;;;;5140547;27;20037;-65
2023/07/27 02:20:21;;;;;;;17.55;8.73;;;15.50;99.90;;;;;;5158981;27;20026;-65
2023/07/27 02:22:47;;;;;;;20.80;10.27;;;15.40;99.90;;;;;;5139910;27;20440;-64
2023/07/27 02:25:14;;;;;;;22.40;10.43;;;15.30;99.90;;;;;;5158890;27;20027;-65
2023/07/27 02:27:41;;;;;;;22.02;11.18;;;15.30;99.90;;;;;;5158938;27;20026;-65
2023/07/27 02:30:07;;;;;;;20.45;10.07;;;15.40;99.90;;;;;;5140041;27;20094;-65
2023/07/27 02:32:34;;;;;;;21.05;10.07;;;15.30;99.90;;;;;;5158849;27;20023;-65
2023/07/27 02:35:00;;;;;;;16.70;9.80;;;15.20;99.90;;;;;;5139991;27;20449;-65
2023/07/27 02:37:26;;;;;;;17.17;8.60;;;15.10;99.90;;;;;;5139998;27;20360;-65
2023/07/27 02:39:53;;;;;;;15.18;8.02;;;15.00;99.90;;;;;;5139928;27;20396;-65
2023/07/27 02:42:19;;;;;;;15.00;7.65;;;14.90;99.90;;;;;;5158464;27;20019;-65
2023/07/27 02:44:45;;;;;;;19.00;6.60;;;14.90;99.90;;;;;;5139887;27;20086;-65
2023/07/27 02:47:11;;;;;;;16.85;6.10;;;14.90;99.90;;;;;;5157299;27;20090;-65
2023/07/27 02:49:37;;;;;;;12.75;6.25;;;14.80;99.90;;;;;;5139746;27;20037;-65
2023/07/27 02:52:04;;;;;;;12.10;5.90;;;14.80;99.90;;;;;;5139802;27;20454;-65
2023/07/27 02:54:30;;;;;;;7.53;4.97;;;14.70;99.90;;;;;;5139567;27;20058;-65
2023/07/27 02:56:56;;;;;;;8.73;5.93;;;14.70;99.90;;;;;;5139473;27;20133;-65
2023/07/27 02:59:28;;;;;;;11.65;4.82;;;14.60;99.90;;;;;;5139804;27;20495;-65
2023/07/27 03:01:54;;;;;;;7.82;4.60;;;14.50;99.90;;;;;;5139601;27;20034;-65
2023/07/27 03:04:26;;;;;;;9.95;4.78;;;14.50;99.90;;;;;;5139406;27;20030;-65
2023/07/27 03:06:53;;;;;;;8.70;4.70;;;14.50;99.90;;;;;;5139349;27;20035;-65
2023/07/27 03:09:21;;;;;;;7.65;4.70;;;14.50;99.90;;;;;;5139439;27;20472;-65
2023/07/27 03:11:47;;;;;;;6.55;4.13;;;14.50;99.90;;;;;;5139140;27;20058;-65
2023/07/27 03:14:13;;;;;;;9.75;4.65;;;14.50;99.90;;;;;;5139551;27;20035;-65
2023/07/27 03:16:39;;;;;;;9.65;4.32;;;14.50;99.90;;;;;;5139389;27;20027;-65
2023/07/27 03:19:05;;;;;;;8.75;5.13;;;14.50;99.90;;;;;;5139075;27;20118;-65
2023/07/27 03:21:31;;;;;;;11.30;6.10;;;14.50;99.90;;;;;;5139032;27;20035;-65
2023/07/27 03:23:57;;;;;;;15.48;6.95;;;14.40;99.90;;;;;;5157878;27;20126;-65
2023/07/27 03:26:23;;;;;;;16.80;7.20;;;14.40;99.90;;;;;;5138966;27;20048;-65
2023/07/27 03:28:49;;;;;;;12.30;7.43;;;14.30;99.90;;;;;;5157766;27;20127;-65
2023/07/27 03:31:17;;;;;;;14.82;7.32;;;14.30;99.90;;;;;;5157740;27;20507;-65
2023/07/27 03:33:43;;;;;;;19.77;8.10;;;14.40;99.90;;;;;;5157454;27;20027;-65
2023/07/27 03:36:09;;;;;;;15.05;8.23;;;14.30;99.90;;;;;;5157525;27;20122;-65
2023/07/27 03:38:35;;;;;;;18.27;8.18;;;14.20;99.90;;;;;;5138868;27;20022;-65
2023/07/27 03:41:02;;;;;;;26.63;8.65;;;14.20;99.90;;;;;;5138673;27;20022;-65
2023/07/27 03:43:29;;;;;;;15.80;7.15;;;14.20;99.90;;;;;;5138746;27;20029;-65
2023/07/27 03:45:54;;;;;;;16.45;6.55;;;14.20;99.90;;;;;;5138743;27;20034;-65
2023/07/27 03:48:20;;;;;;;16.25;6.57;;;14.20;99.90;;;;;;5138494;27;20035;-65
2023/07/27 03:50:46;;;;;;;12.52;7.18;;;14.20;99.90;;;;;;5157297;27;20023;-65
2023/07/27 03:53:12;;;;;;;15.15;6.65;;;14.20;99.90;;;;;;5157166;27;20145;-65
2023/07/27 03:55:38;;;;;;;13.68;7.30;;;14.20;99.90;;;;;;5156828;27;20030;-65
2023/07/27 03:58:04;;;;;;;17.33;7.22;;;14.20;99.90;;;;;;5138190;27;20152;-65
2023/07/27 04:00:30;;;;;;;20.05;6.90;;;14.20;99.90;;;;;;5138547;27;20014;-65
2023/07/27 04:02:56;;;;;;;20.23;8.77;;;14.20;99.90;;;;;;5138228;27;20034;-65
2023/07/27 04:05:22;;;;;;;14.68;6.82;;;14.20;99.90;;;;;;5138344;27;20030;-65
2023/07/27 04:07:51;;;;;;;15.45;7.15;;;14.20;99.90;;;;;;5156692;27;20027;-65
2023/07/27 04:10:18;;;;;;;16.70;5.90;;;14.20;99.90;;;;;;5157101;27;20031;-65
2023/07/27 04:12:44;;;;;;;10.73;5.57;;;14.20;99.90;;;;;;5138291;27;20027;-65
2023/07/27 04:15:10;;;;;;;6.68;4.60;;;14.20;99.90;;;;;;5156675;27;20035;-65
2023/07/27 04:17:36;;;;;;;8.77;4.30;;;14.30;99.90;;;;;;5138063;27;20018;-65
2023/07/27 04:20:03;;;;;;;9.55;4.03;;;14.40;99.90;;;;;;5138096;27;20117;-65
2023/07/27 04:22:28;;;;;;;7.82;4.63;;;14.40;99.90;;;;;;5137708;27;20384;-65
2023/07/27 04:24:54;;;;;;;9.07;4.88;;;14.40;99.90;;;;;;5156521;27;20049;-65
2023/07/27 04:27:20;;;;;;;7.80;4.68;;;14.50;99.90;;;;;;5137907;27;20034;-65
2023/07/27 04:29:46;;;;;;;6.85;5.10;;;14.50;99.90;;;;;;5137818;27;20022;-65
2023/07/27 04:32:12;;;;;;;6.18;4.80;;;14.50;99.90;;;;;;5156449;27;20026;-65
2023/07/27 04:34:38;;;;;;;9.38;5.55;;;14.60;99.90;;;;;;5156352;27;20047;-65
2023/07/27 04:37:04;;;;;;;6.72;4.88;;;14.80;99.90;;;;;;5156350;27;20129;-65
2023/07/27 04:39:30;;;;;;;10.45;6.05;;;14.80;99.90;;;;;;5156537;27;20030;-65
2023/07/27 04:41:56;;;;;;;9.23;5.60;;;14.80;99.90;;;;;;5156267;27;20027;-65
2023/07/27 04:44:22;;;;;;;8.00;4.85;;;14.80;99.90;;;;;;5156056;27;20115;-65
2023/07/27 04:46:48;;;;;;;6.32;5.18;;;14.90;99.90;;;;;;5137655;27;20050;-65
2023/07/27 04:49:14;;;;;;;5.63;4.85;;;15.00;99.90;;;;;;5156446;27;20559;-65
2023/07/27 04:51:40;;;;;;;5.53;4.72;;;14.90;99.90;;;;;;5137471;27;20031;-65
2023/07/27 04:54:06;;;;;;;6.78;5.10;;;14.90;99.90;;;;;;5156190;27;20383;-65
2023/07/27 04:56:32;;;;;;;5.90;4.35;;;14.90;99.90;;;;;;5137509;27;20086;-65
2023/07/27 04:58:58;;;;;;;7.20;4.60;;;14.90;99.90;;;;;;5156063;27;20482;-65
2023/07/27 05:01:24;;;;;;;6.00;4.10;;;14.90;99.90;;;;;;5156149;27;20031;-66
2023/07/27 05:03:51;;;;;;;9.20;4.25;;;14.90;99.90;;;;;;5156125;27;20023;-66
2023/07/27 05:06:17;;;;;;;6.28;4.75;;;15.00;99.90;;;;;;5155947;27;20047;-66
2023/07/27 05:08:43;;;;;;;6.90;4.72;;;15.00;99.90;;;;;;5155876;27;20023;-65
2023/07/27 05:11:09;;;;;;;4.47;3.80;;;15.20;99.90;;;;;;5159002;27;20156;-65
2023/07/27 05:13:35;;;;;;;5.85;4.72;;;15.10;99.90;;;;;;5161020;27;20167;-65
2023/07/27 05:16:02;;;;;;;7.95;5.03;;;15.20;99.90;;;;;;5160461;27;20031;-65
2023/07/27 05:18:29;;;;;;;9.07;5.22;;;15.30;99.90;;;;;;5160026;27;20033;-65
2023/07/27 05:20:56;;;;;;;6.97;4.93;;;15.30;99.90;;;;;;5159531;27;20113;-65
2023/07/27 05:31:08;;;;;;;12.40;6.25;;;15.60;99.90;;;;;;5159514;27;20030;-65
2023/07/27 05:33:34;;;;;;;11.45;5.35;;;15.60;99.90;;;;;;5159696;27;20023;-65
2023/07/27 05:36:00;;;;;;;9.77;5.85;;;15.80;99.90;;;;;;5159619;27;20026;-65
2023/07/27 05:38:25;;;;;;;15.95;7.20;;;15.90;99.90;;;;;;5158905;27;20026;-65
2023/07/27 05:40:51;;;;;;;14.23;7.47;;;15.90;99.90;;;;;;5138326;27;20027;-65
2023/07/27 05:43:17;;;;;;;12.82;7.38;;;16.00;99.90;;;;;;5138507;27;20022;-66
2023/07/27 05:45:44;;;;;;;16.15;8.43;;;16.10;99.90;;;;;;5139014;27;20031;-66
2023/07/27 05:48:10;;;;;;;18.33;9.93;;;16.10;99.90;;;;;;5138568;27;20027;-65
2023/07/27 05:50:36;;;;;;;17.98;10.48;;;16.10;99.90;;;;;;5119420;27;20039;-66
2023/07/27 05:53:02;;;;;;;29.60;14.07;;;16.20;99.90;;;;;;5118733;28;20477;-65
2023/07/27 05:55:28;;;;;;;23.13;11.68;;;16.40;99.90;;;;;;5117613;28;20035;-66
2023/07/27 05:57:54;;;;;;;32.08;13.68;;;16.40;99.90;;;;;;5117923;28;20031;-65
2023/07/27 06:00:20;;;;;;;25.55;12.80;;;16.50;99.90;;;;;;5117822;28;20016;-66
2023/07/27 06:02:54;;;;;;;32.08;14.13;;;16.50;99.90;;;;;;5115840;28;20057;-66
2023/07/27 06:05:20;;;;;;;32.35;14.07;;;16.60;99.90;;;;;;5117343;28;20024;-65
2023/07/27 06:07:45;;;;;;;19.85;11.07;;;16.60;99.90;;;;;;5133378;27;20384;-66
2023/07/27 06:10:12;;;;;;;30.80;12.63;;;16.70;99.90;;;;;;5137191;27;20084;-66
2023/07/27 06:12:38;;;;;;;21.73;9.75;;;16.70;99.90;;;;;;5137445;27;20783;-66
2023/07/27 06:15:04;;;;;;;32.42;11.25;;;16.80;99.90;;;;;;5136846;27;20027;-66
2023/07/27 06:17:30;;;;;;;38.15;13.32;;;16.90;99.90;;;;;;5136574;27;20076;-66
2023/07/27 06:19:57;;;;;;;36.97;13.57;;;17.00;99.90;;;;;;5136051;27;20064;-66
2023/07/27 06:22:23;;;;;;;32.90;12.55;;;17.00;99.90;;;;;;5137784;27;20867;-65
2023/07/27 06:24:48;;;;;;;36.92;12.80;;;17.10;99.90;;;;;;5136304;27;20073;-66
2023/07/27 06:27:15;;;;;;;37.55;13.23;;;17.20;99.90;;;;;;5136352;27;20114;-66
2023/07/27 06:29:41;;;;;;;36.40;13.82;;;17.30;99.90;;;;;;5136468;27;20023;-66
2023/07/27 06:32:07;;;;;;;42.00;15.85;;;17.50;99.90;;;;;;5137489;27;20455;-66
2023/07/27 06:34:33;;;;;;;37.97;14.05;;;17.50;99.90;;;;;;5137765;27;20031;-66
2023/07/27 06:36:59;;;;;;;45.10;15.45;;;17.50;99.90;;;;;;5137725;27;20029;-66
2023/07/27 06:39:25;;;;;;;43.22;14.23;;;17.60;99.90;;;;;;5118991;27;20031;-66
2023/07/27 06:41:51;;;;;;;37.90;14.00;;;17.80;99.90;;;;;;5138007;27;20028;-66
2023/07/27 06:44:26;;;;;;;37.95;12.10;;;17.80;99.90;;;;;;5119105;27;20035;-65
2023/07/27 06:46:52;;;;;;;35.20;12.55;;;17.80;99.90;;;;;;5137904;27;20023;-66
2023/07/27 06:49:17;;;;;;;36.47;12.82;;;18.10;99.90;;;;;;5138202;27;20468;-66
2023/07/27 06:51:43;;;;;;;40.50;13.77;;;18.30;99.90;;;;;;5137910;27;20110;-66
2023/07/27 06:54:09;;;;;;;42.75;14.20;;;18.30;99.90;;;;;;5137607;27;20057;-66
2023/07/27 06:56:35;;;;;;;39.05;14.45;;;18.50;99.90;;;;;;5136487;27;20085;-66
2023/07/27 06:59:01;;;;;;;41.38;14.38;;;18.60;99.90;;;;;;5134307;27;20111;-65
2023/07/27 07:01:34;;;;;;;36.58;13.73;;;18.70;99.90;;;;;;5136143;27;20023;-66
2023/07/27 07:04:00;;;;;;;31.35;10.57;;;18.90;99.90;;;;;;5118291;27;20030;-65
2023/07/27 07:06:26;;;;;;;36.25;12.43;;;19.00;99.80;;;;;;5135469;27;20460;-66
2023/07/27 07:08:51;;;;;;;36.55;12.65;;;19.10;98.40;;;;;;5135455;27;20019;-66
2023/07/27 07:11:17;;;;;;;31.27;12.82;;;19.20;98.60;;;;;;5135751;27;20023;-67
2023/07/27 07:13:43;;;;;;;19.20;8.50;;;19.50;99.90;;;;;;5135680;27;20023;-66
2023/07/27 07:16:09;;;;;;;32.15;11.68;;;19.90;99.90;;;;;;5136630;27;20031;-67
2023/07/27 07:18:35;;;;;;;29.75;12.18;;;20.00;98.80;;;;;;5135786;27;20030;-68
2023/07/27 07:21:01;;;;;;;35.40;11.85;;;20.20;97.10;;;;;;5138408;27;20048;-66
2023/07/27 07:23:36;;;;;;;30.50;12.45;;;20.50;96.60;;;;;;5135599;27;20130;-66
2023/07/27 07:26:02;;;;;;;30.75;13.52;;;20.70;94.70;;;;;;5137229;27;20074;-67
2023/07/27 07:28:28;;;;;;;27.17;10.40;;;20.90;94.90;;;;;;5112766;27;20036;-66
2023/07/27 07:30:59;;;;;;;32.33;13.10;;;21.20;95.00;;;;;;5097514;28;20036;-65
2023/07/27 07:33:28;;;;;;;38.90;15.40;;;21.30;92.20;;;;;;5110307;28;20108;-67
2023/07/27 07:35:54;;;;;;;30.48;12.02;;;21.10;92.00;;;;;;5096113;28;20056;-64
2023/07/27 07:38:20;;;;;;;38.75;14.73;;;20.70;92.30;;;;;;5055114;28;20402;-67
2023/07/27 07:40:46;;;;;;;35.65;12.10;;;21.10;92.60;;;;;;5093530;28;20048;-66
2023/07/27 07:43:15;;;;;;;28.40;10.23;;;21.50;93.30;;;;;;5085355;28;20517;-67
2023/07/27 07:45:45;;;;;;;15.00;6.95;;;21.90;92.80;;;;;;5097704;28;20040;-66
2023/07/27 07:48:11;;;;;;;18.10;6.93;;;22.20;89.30;;;;;;5098182;28;20126;-67
2023/07/27 07:50:37;;;;;;;19.38;6.65;;;22.40;83.80;;;;;;5101460;28;20093;-66
2023/07/27 07:53:05;;;;;;;18.45;7.50;;;22.40;76.80;;;;;;5107061;28;20042;-67
2023/07/27 07:55:38;;;;;;;18.55;6.97;;;22.40;81.50;;;;;;5095538;28;20035;-66
2023/07/27 07:58:04;;;;;;;14.52;5.25;;;22.60;81.30;;;;;;5092706;28;20036;-66
2023/07/27 08:00:30;;;;;;;5.63;2.65;;;22.30;78.50;;;;;;5121207;27;20078;-66
2023/07/27 08:02:56;;;;;;;4.97;2.05;;;22.40;70.80;;;;;;5125352;27;20058;-65
2023/07/27 08:05:22;;;;;;;4.63;1.98;;;22.80;72.00;;;;;;5126402;27;20047;-66
2023/07/27 08:07:48;;;;;;;4.43;1.75;;;22.80;68.20;;;;;;5122333;27;20395;-66
2023/07/27 08:10:14;;;;;;;4.63;2.33;;;22.40;69.50;;;;;;5124205;27;20050;-66
2023/07/27 08:12:40;;;;;;;2.42;1.30;;;22.80;71.30;;;;;;5125388;27;20062;-66
2023/07/27 08:15:07;;;;;;;1.90;1.35;;;22.90;66.30;;;;;;5062618;27;20423;-66
2023/07/27 08:17:33;;;;;;;4.07;1.55;;;23.10;66.20;;;;;;5070553;28;20048;-66
2023/07/27 08:19:59;;;;;;;6.95;2.33;;;23.30;60.10;;;;;;5039796;28;20041;-66
2023/07/27 08:22:25;;;;;;;3.95;2.13;;;23.20;60.60;;;;;;5052718;28;20055;-67
2023/07/27 08:24:51;;;;;;;2.85;1.60;;;23.50;62.60;;;;;;5074269;28;20025;-65
2023/07/27 08:27:18;;;;;;;4.60;1.98;;;23.70;64.00;;;;;;5078899;27;20510;-66
2023/07/27 08:29:44;;;;;;;9.10;2.75;;;23.90;59.00;;;;;;5081406;28;20028;-66
2023/07/27 08:32:11;;;;;;;3.80;1.90;;;23.40;62.30;;;;;;5076920;27;20140;-68
2023/07/27 08:34:37;;;;;;;4.03;2.00;;;23.50;61.00;;;;;;5051466;28;20033;-66
2023/07/27 08:37:03;;;;;;;3.30;1.83;;;23.80;62.80;;;;;;5082235;28;20076;-66
2023/07/27 08:39:29;;;;;;;4.85;2.42;;;24.40;57.90;;;;;;5076453;28;20036;-66
2023/07/27 08:41:55;;;;;;;6.55;3.58;;;24.10;59.30;;;;;;5077493;28;20046;-66
2023/07/27 08:44:21;;;;;;;8.05;2.78;;;24.40;56.50;;;;;;5082592;28;20032;-67
2023/07/27 08:46:49;;;;;;;6.47;2.47;;;24.90;57.80;;;;;;5057174;28;20040;-66
2023/07/27 08:49:16;;;;;;;9.60;4.18;;;24.50;56.60;;;;;;5078465;28;20061;-66
2023/07/27 08:51:45;;;;;;;9.57;3.45;;;24.50;55.20;;;;;;5085483;28;20036;-66
2023/07/27 08:54:19;;;;;;;10.23;4.32;;;24.80;56.60;;;;;;5062375;28;20056;-66
2023/07/27 08:56:45;;;;;;;9.90;3.72;;;25.30;53.20;;;;;;5087008;28;20906;-66
2023/07/27 08:59:11;;;;;;;5.95;3.30;;;25.50;53.60;;;;;;5068198;28;20127;-62
2023/07/27 09:01:37;;;;;;;6.57;3.33;;;25.30;51.70;;;;;;5060647;28;20599;-63
2023/07/27 09:04:03;;;;;;;5.95;2.92;;;25.10;51.30;;;;;;5058783;28;20032;-62
2023/07/27 09:06:48;;;;;;;13.48;4.30;;;25.50;50.20;;;;;;5066306;28;20040;-62
2023/07/27 09:09:21;;;;;;;7.68;3.22;;;25.20;49.40;;;;;;5042833;28;20113;-62
2023/07/27 09:11:47;;;;;;;8.70;3.20;;;24.80;50.80;;;;;;5060392;28;20055;-62
2023/07/27 09:14:19;;;;;;;4.90;2.75;;;24.50;51.60;;;;;;5044667;28;20556;-63
2023/07/27 09:16:45;;;;;;;8.68;2.92;;;25.10;53.50;;;;;;5044212;28;20499;-62
2023/07/27 09:19:12;;;;;;;7.78;3.90;;;25.20;52.30;;;;;;5051912;28;20061;-62
2023/07/27 09:21:46;;;;;;;6.43;3.65;;;25.10;51.00;;;;;;5059162;28;20130;-63
2023/07/27 09:24:13;;;;;;;7.82;3.38;;;25.30;54.40;;;;;;4985218;28;20048;-62
2023/07/27 09:26:47;;;;;;;5.25;2.90;;;25.30;50.30;;;;;;4977201;28;20053;-63
2023/07/27 09:29:15;;;;;;;8.55;3.90;;;25.40;55.20;;;;;;5006090;28;20045;-62
2023/07/27 09:31:50;;;;;;;5.88;3.22;;;25.20;50.80;;;;;;5006344;28;20136;-63
2023/07/27 09:34:18;;;;;;;5.55;3.08;;;25.20;49.80;;;;;;5047222;28;20117;-63
2023/07/27 09:36:45;;;;;;;7.43;3.63;;;25.40;47.40;;;;;;5004410;28;20569;-63
2023/07/27 09:39:13;;;;;;;6.35;3.53;;;24.50;47.50;;;;;;5017307;28;20399;-63
2023/07/27 09:41:50;;;;;;;9.68;4.32;;;24.70;50.50;;;;;;5005248;28;22898;-63
2023/07/27 09:44:17;;;;;;;7.40;2.85;;;25.30;49.90;;;;;;5005116;28;20033;-63
2023/07/27 09:46:47;;;;;;;9.70;4.95;;;25.30;47.90;;;;;;5008774;28;20321;-63
2023/07/27 09:49:14;;;;;;;8.38;3.92;;;24.80;50.40;;;;;;5004992;28;21331;-63
2023/07/27 09:51:42;;;;;;;5.53;2.97;;;25.10;56.20;;;;;;5003566;28;21920;-62
2023/07/27 09:54:08;;;;;;;9.25;3.10;;;25.00;49.80;;;;;;5019817;28;22254;-63
2023/07/27 09:56:35;;;;;;;9.60;4.28;;;25.10;53.20;;;;;;5026864;28;23945;-63
2023/07/27 09:59:01;;;;;;;5.65;2.80;;;25.00;54.10;;;;;;4994767;28;23843;-63
2023/07/27 10:01:27;;;;;;;6.00;2.83;;;24.80;54.80;;;;;;5029768;28;24654;-63
2023/07/27 10:03:58;;;;;;;4.80;2.10;;;24.80;57.00;;;;;;5017866;28;26707;-63
2023/07/27 10:06:37;;;;;;;5.75;2.17;;;25.10;49.90;;;;;;5050903;28;27536;-63
2023/07/27 10:09:18;;;;;;;4.40;2.50;;;25.60;50.00;;;;;;5014590;28;29282;-63
2023/07/27 10:12:03;;;;;;;8.00;2.92;;;26.00;48.80;;;;;;5015443;28;28242;-63
2023/07/27 10:14:29;;;;;;;6.50;2.83;;;25.80;45.70;;;;;;4993606;28;30934;-63
2023/07/27 10:17:06;;;;;;;4.03;2.30;;;25.90;48.40;;;;;;5011826;28;32297;-63
2023/07/27 10:19:43;;;;;;;10.18;2.58;;;26.20;46.90;;;;;;5014297;28;32125;-63
2023/07/27 10:22:14;;;;;;;9.68;2.50;;;25.90;46.10;;;;;;5035331;28;34288;-63
2023/07/27 10:24:52;;;;;;;3.70;2.00;;;25.90;45.50;;;;;;4992576;28;35168;-63
2023/07/27 10:27:21;;;;;;;4.15;1.70;;;26.40;44.90;;;;;;4972705;28;36194;-63
2023/07/27 10:30:09;;;;;;;2.95;1.40;;;26.70;45.30;;;;;;4994011;28;37871;-63
2023/07/27 10:32:38;;;;;;;3.20;1.40;;;26.70;41.00;;;;;;4892275;28;39384;-63
2023/07/27 10:35:08;;;;;;;3.50;1.58;;;27.00;40.50;;;;;;4895925;28;40941;-63
2023/07/27 10:37:53;;;;;;;9.27;2.70;;;27.20;42.80;;;;;;4938318;28;41866;-63
2023/07/27 10:40:29;;;;;;;5.82;2.20;;;27.80;42.60;;;;;;4962187;28;42382;-64
2023/07/27 10:42:57;;;;;;;3.20;2.15;;;27.60;39.90;;;;;;4975677;28;43473;-64
2023/07/27 10:45:27;;;;;;;7.20;2.10;;;27.90;41.10;;;;;;4973596;28;43041;-63
2023/07/27 10:47:57;;;;;;;2.87;1.00;;;27.30;37.20;;;;;;5014746;28;46452;-63
2023/07/27 10:50:23;;;;;;;2.35;1.38;;;27.90;37.30;;;;;;5044589;27;47152;-56
2023/07/27 10:52:53;;;;;;;8.68;2.05;;;27.50;38.20;;;;;;5043264;28;48691;-57
2023/07/27 10:55:20;;;;;;;2.47;1.20;;;27.00;41.70;;;;;;5028694;28;49420;-57
2023/07/27 10:57:47;;;;;;;2.92;1.50;;;26.60;38.90;;;;;;4984814;28;49768;-57
2023/07/27 11:00:14;;;;;;;4.47;2.00;;;26.30;40.00;;;;;;4994462;28;53747;-57
2023/07/27 11:02:42;;;;;;;3.80;2.45;;;26.20;41.90;;;;;;5015960;28;49641;-56
2023/07/27 11:05:09;;;;;;;6.97;3.30;;;25.70;44.20;;;;;;5039093;28;31836;-56
2023/07/27 11:07:40;;;;;;;8.68;3.90;;;25.70;46.30;;;;;;5031343;27;49476;-56
2023/07/27 11:10:11;;;;;;;9.48;4.45;;;25.60;45.10;;;;;;5026036;28;57946;-56
2023/07/27 11:12:54;;;;;;;13.20;5.50;;;25.30;44.50;;;;;;4979155;28;58216;-56
2023/07/27 11:15:26;;;;;;;7.03;5.07;;;25.80;46.20;;;;;;4950811;28;35197;-57
2023/07/27 11:17:54;;;;;;;15.60;6.93;;;25.90;44.40;;;;;;4971237;28;24864;-56
2023/07/27 11:20:22;;;;;;;14.98;6.53;;;25.70;43.90;;;;;;4977205;28;36570;-57
2023/07/27 11:22:49;;;;;;;14.05;8.15;;;26.40;47.60;;;;;;4927824;28;37935;-57
2023/07/27 11:25:15;;;;;;;11.43;9.55;;;27.00;44.20;;;;;;4950474;28;24703;-57
2023/07/27 11:27:41;;;;;;;7.95;6.85;;;27.10;42.80;;;;;;5000389;28;24796;-56
2023/07/27 11:30:12;;;;;;;3.95;3.35;;;27.30;38.10;;;;;;4997395;28;24386;-56
2023/07/27 11:32:38;;;;;;;;;;;26.80;39.70;;;;;;4983205;28;24567;-56
2023/07/27 11:35:05;;;;;;;6.07;3.10;;;27.10;41.00;;;;;;4926139;28;24773;-56
2023/07/27 11:37:32;;;;;;;4.82;2.85;;;27.40;39.40;;;;;;4969224;28;24944;-56
2023/07/27 11:39:58;;;;;;;3.15;1.80;;;27.90;43.20;;;;;;4999706;28;24747;-56
2023/07/27 11:42:29;;;;;;;5.78;1.65;;;28.30;38.90;;;;;;4999304;28;24839;-56
2023/07/27 11:44:57;;;;;;;4.00;2.20;;;28.30;42.00;;;;;;4996471;28;24760;-56
2023/07/27 11:47:23;;;;;;;3.33;2.63;;;28.40;38.20;;;;;;4972760;28;49107;-56
2023/07/27 11:49:51;;;;;;;4.78;2.50;;;27.90;38.60;;;;;;4965656;28;40666;-57
2023/07/27 11:52:18;;;;;;;4.85;2.20;;;28.40;39.70;;;;;;4981866;28;40580;-56
2023/07/27 11:54:45;;;;;;;4.13;1.60;;;28.80;41.90;;;;;;4944912;28;49327;-57
2023/07/27 11:57:15;;;;;;;4.55;1.83;;;29.30;37.30;;;;;;4939911;28;39500;-56
2023/07/27 11:59:41;;;;;;;3.67;1.55;;;29.40;38.50;;;;;;4925501;28;49805;-57
2023/07/27 12:02:07;;;;;;;3.95;1.50;;;29.40;35.50;;;;;;4883526;28;40921;-56
2023/07/27 12:04:34;;;;;;;2.85;1.85;;;28.50;32.00;;;;;;4963344;28;40620;-57
2023/07/27 12:07:00;;;;;;;3.42;1.83;;;27.30;37.50;;;;;;4989645;28;48609;-57
2023/07/27 12:09:27;;;;;;;1.88;1.25;;;27.10;42.20;;;;;;5033677;28;24833;-57
2023/07/27 12:11:53;;;;;;;2.67;1.38;;;27.40;37.80;;;;;;5011503;28;25029;-57
2023/07/27 12:14:20;;;;;;;5.35;1.70;;;27.70;38.80;;;;;;5006985;28;24828;-57
2023/07/27 12:16:47;;;;;;;6.60;2.30;;;27.40;35.70;;;;;;5011247;28;24990;-57
2023/07/27 12:19:13;;;;;;;3.88;2.03;;;26.80;37.00;;;;;;5006784;28;26235;-56
2023/07/27 12:21:40;;;;;;;2.47;1.50;;;27.10;42.50;;;;;;4985555;28;50061;-57
2023/07/27 12:26:53;;;;;;;2.80;2.00;;;27.30;38.80;;;;;;5111933;27;20200;-56
2023/07/27 12:29:20;;;;;;;8.57;3.00;;;27.30;36.70;;;;;;5112165;28;20020;-56
2023/07/27 12:31:46;;;;;;;7.45;4.43;;;26.80;39.10;;;;;;5112102;28;20020;-55
2023/07/27 12:34:12;;;;;;;7.07;4.35;;;27.20;37.50;;;;;;5111782;28;20115;-56
2023/07/27 12:36:38;;;;;;;11.38;4.53;;;27.40;36.00;;;;;;5111807;28;20032;-56
2023/07/27 12:39:04;;;;;;;5.82;3.45;;;27.40;36.90;;;;;;5111911;28;20038;-56
2023/07/27 12:41:29;;;;;;;6.68;3.10;;;27.40;38.10;;;;;;5111386;28;20024;-56
2023/07/27 12:43:56;;;;;;;12.15;3.95;;;27.50;38.90;;;;;;5111651;28;20064;-57
2023/07/27 12:46:23;;;;;;;5.47;3.33;;;27.80;38.00;;;;;;5112023;28;20106;-57
2023/07/27 12:48:50;;;;;;;5.45;3.17;;;28.10;38.20;;;;;;5111799;28;20023;-56
2023/07/27 12:51:15;;;;;;;4.13;2.75;;;28.10;37.10;;;;;;5111756;28;20027;-57
2023/07/27 12:53:41;;;;;;;9.30;3.83;;;28.10;33.70;;;;;;5111863;28;20373;-57